Terminal Aerodrome Forecast
Issued by NWS Topeka, KS

Home | Current Version | Previous Version | Graphics & Text | Print | Product List | Glossary On
Versions: 1 2 3 4 5 6 7 8 9 10 11 12 13 14 15 16 17
000
FTUS43 KTOP 241120
TAFTOP
TAF
KTOP 241120Z 2412/2512 14006KT P6SM SCT060
     FM241500 17010KT P6SM VCSH SCT050
     FM242000 16009KT P6SM VCTS BKN050CB
      TEMPO 2423/2503 VRB15G30KT 1SM TSRA BKN025CB
     FM250300 20006KT 4SM -TSRA BKN035CB=

USA.gov is the U.S. government's official web portal to all federal, state and local government web resources and services.